createdAt,value
2022-08-31T00:01:01.504Z,16.30
2022-08-31T00:03:47.502Z,16.20
2022-08-31T00:06:17.437Z,16.30
2022-08-31T00:08:46.230Z,16.30
2022-08-31T00:11:16.902Z,16.00
2022-08-31T00:13:47.725Z,15.90
2022-08-31T00:16:18.142Z,15.90
2022-08-31T00:18:47.118Z,15.90
2022-08-31T00:21:15.848Z,16.00
2022-08-31T00:23:44.585Z,16.20
2022-08-31T00:26:13.433Z,16.00
2022-08-31T00:28:42.292Z,15.90
2022-08-31T00:31:13.758Z,16.10
2022-08-31T00:33:43.447Z,16.10
2022-08-31T00:36:15.796Z,15.80
2022-08-31T00:38:44.535Z,15.70
2022-08-31T00:41:13.737Z,15.90
2022-08-31T00:43:48.012Z,16.00
2022-08-31T00:46:23.246Z,15.80
2022-08-31T00:49:01.210Z,15.60
2022-08-31T00:51:36.297Z,15.60
2022-08-31T00:54:07.323Z,15.70
2022-08-31T00:56:38.313Z,15.70
2022-08-31T00:59:07.508Z,15.60
2022-08-31T01:01:37.692Z,15.50
2022-08-31T01:04:07.682Z,15.60
2022-08-31T01:06:37.598Z,15.50
2022-08-31T01:09:09.197Z,15.40
2022-08-31T01:11:41.153Z,15.40
2022-08-31T01:14:11.030Z,15.50
2022-08-31T01:16:46.799Z,15.50
2022-08-31T01:19:26.024Z,15.40
2022-08-31T01:22:04.047Z,15.30
2022-08-31T01:24:36.625Z,15.40
2022-08-31T01:27:07.889Z,15.50
2022-08-31T01:29:37.459Z,15.40
2022-08-31T01:32:07.968Z,15.50
2022-08-31T01:34:36.914Z,15.30
2022-08-31T01:37:07.096Z,15.40
2022-08-31T01:39:38.238Z,15.50
2022-08-31T01:42:08.196Z,15.40
2022-08-31T01:44:40.943Z,15.30
2022-08-31T01:47:10.910Z,15.50
2022-08-31T01:49:40.842Z,15.50
2022-08-31T01:52:10.785Z,15.50
2022-08-31T01:54:42.899Z,15.50
2022-08-31T01:57:11.837Z,15.30
2022-08-31T01:59:55.429Z,15.20
2022-08-31T02:02:43.249Z,15.30
2022-08-31T02:05:14.612Z,15.30
2022-08-31T02:07:46.598Z,15.30
2022-08-31T02:10:17.603Z,15.10
2022-08-31T02:12:46.633Z,15.10
2022-08-31T02:15:15.546Z,15.00
2022-08-31T02:17:44.447Z,15.00
2022-08-31T02:20:15.719Z,15.10
2022-08-31T02:22:44.778Z,15.00
2022-08-31T02:25:13.645Z,15.20
2022-08-31T02:27:44.499Z,15.00
2022-08-31T02:30:18.855Z,15.00
2022-08-31T02:32:47.895Z,15.00
2022-08-31T02:35:16.815Z,15.10
2022-08-31T02:37:45.631Z,15.00
2022-08-31T02:40:16.708Z,15.10
2022-08-31T02:42:53.516Z,15.00
2022-08-31T02:45:25.638Z,15.00
2022-08-31T02:47:58.991Z,15.00
2022-08-31T02:50:40.355Z,14.80
2022-08-31T02:53:09.972Z,14.70
2022-08-31T02:55:40.006Z,14.80
2022-08-31T02:58:11.178Z,14.90
2022-08-31T03:00:41.349Z,14.80
2022-08-31T03:03:10.126Z,14.80
2022-08-31T03:05:39.647Z,14.90
2022-08-31T03:08:09.586Z,14.90
2022-08-31T03:10:38.811Z,14.90
2022-08-31T03:13:09.649Z,14.80
2022-08-31T03:15:38.741Z,14.70
2022-08-31T03:18:08.191Z,14.80
2022-08-31T03:20:37.269Z,14.80
2022-08-31T03:23:07.739Z,14.80
2022-08-31T03:25:39.561Z,14.70
2022-08-31T03:28:11.069Z,14.70
2022-08-31T03:30:43.843Z,14.70
2022-08-31T03:33:14.356Z,14.70
2022-08-31T03:35:44.914Z,14.60
2022-08-31T03:38:16.923Z,14.50
2022-08-31T03:40:46.316Z,14.50
2022-08-31T03:43:16.624Z,14.50
2022-08-31T03:45:46.153Z,14.50
2022-08-31T03:48:15.243Z,14.40
2022-08-31T03:50:46.497Z,14.40
2022-08-31T03:53:24.830Z,14.30
2022-08-31T03:56:02.088Z,14.40
2022-08-31T03:58:38.915Z,14.40
2022-08-31T04:01:09.030Z,14.50
2022-08-31T04:03:56.570Z,14.40
2022-08-31T04:06:48.190Z,14.30
2022-08-31T04:09:43.697Z,14.30
2022-08-31T04:12:31.675Z,14.30
2022-08-31T04:15:21.034Z,14.20
2022-08-31T04:18:14.049Z,14.20
2022-08-31T04:20:49.817Z,14.20
2022-08-31T04:23:20.247Z,14.20
2022-08-31T04:26:19.758Z,14.20
2022-08-31T04:28:50.548Z,14.30
2022-08-31T04:31:22.564Z,14.30
2022-08-31T04:33:56.783Z,14.30
2022-08-31T04:36:29.010Z,14.30
2022-08-31T04:39:24.157Z,14.30
2022-08-31T04:41:53.381Z,14.20
2022-08-31T04:44:23.107Z,14.20
2022-08-31T04:46:59.710Z,14.10
2022-08-31T04:49:28.842Z,14.20
2022-08-31T04:51:57.902Z,14.30
2022-08-31T04:54:26.691Z,14.20
2022-08-31T04:56:55.926Z,14.20
2022-08-31T04:59:31.410Z,14.20
2022-08-31T05:02:18.331Z,14.30
2022-08-31T05:04:53.339Z,14.20
2022-08-31T05:07:22.249Z,14.30
2022-08-31T05:09:51.096Z,14.30
2022-08-31T05:12:20.093Z,14.30
2022-08-31T05:14:49.210Z,14.20
2022-08-31T05:17:28.172Z,14.20
2022-08-31T05:19:57.081Z,14.20
2022-08-31T05:22:26.099Z,14.20
2022-08-31T05:24:58.079Z,14.20
2022-08-31T05:27:26.978Z,14.30
2022-08-31T05:29:55.667Z,14.30
2022-08-31T05:32:44.330Z,14.30
2022-08-31T05:35:13.719Z,14.30
2022-08-31T05:37:44.177Z,14.30
2022-08-31T05:40:14.620Z,14.30
2022-08-31T05:42:43.554Z,14.30
2022-08-31T05:45:12.614Z,14.30
2022-08-31T05:47:44.396Z,14.30
2022-08-31T05:50:14.169Z,14.30
2022-08-31T05:52:44.657Z,14.40
2022-08-31T05:55:15.412Z,14.40
2022-08-31T05:57:44.286Z,14.40
2022-08-31T06:00:14.641Z,14.40
2022-08-31T06:02:52.235Z,14.40
2022-08-31T06:05:23.078Z,14.30
2022-08-31T06:07:53.465Z,14.40
2022-08-31T06:10:22.663Z,14.50
2022-08-31T06:12:52.192Z,14.50
2022-08-31T06:15:21.950Z,14.60
2022-08-31T06:17:53.221Z,14.60
2022-08-31T06:20:22.657Z,14.60
2022-08-31T06:22:51.393Z,14.70
2022-08-31T06:25:43.248Z,14.80
2022-08-31T06:28:14.402Z,14.70
2022-08-31T06:30:54.957Z,14.70
2022-08-31T06:33:25.938Z,14.80
2022-08-31T06:36:15.482Z,14.80
2022-08-31T06:39:02.507Z,14.90
2022-08-31T06:41:52.700Z,14.90
2022-08-31T06:44:38.047Z,14.90
2022-08-31T06:47:22.114Z,14.90
2022-08-31T06:49:54.920Z,14.90
2022-08-31T06:52:23.699Z,15.00
2022-08-31T06:55:09.378Z,15.00
2022-08-31T06:57:53.419Z,15.00
2022-08-31T07:00:49.485Z,15.10
2022-08-31T07:03:24.421Z,15.10
2022-08-31T07:05:56.473Z,15.20
2022-08-31T07:08:25.405Z,15.20
2022-08-31T07:10:54.583Z,15.20
2022-08-31T07:13:23.377Z,15.20
2022-08-31T07:15:52.417Z,15.30
2022-08-31T07:18:21.551Z,15.40
2022-08-31T07:20:50.320Z,15.40
2022-08-31T07:23:20.768Z,15.50
2022-08-31T07:25:59.704Z,15.50
2022-08-31T07:28:29.729Z,15.50
2022-08-31T07:30:58.651Z,15.60
2022-08-31T07:33:27.628Z,15.60
2022-08-31T07:35:59.894Z,15.70
2022-08-31T07:39:03.477Z,15.70
2022-08-31T07:41:50.522Z,15.80
2022-08-31T07:44:20.814Z,15.80
2022-08-31T07:46:51.161Z,15.80
2022-08-31T07:49:21.708Z,15.80
2022-08-31T07:52:06.209Z,15.80
2022-08-31T07:54:56.728Z,15.90
2022-08-31T07:57:36.356Z,15.90
2022-08-31T08:00:09.675Z,16.00
2022-08-31T08:02:52.986Z,16.00
2022-08-31T08:05:31.930Z,16.10
2022-08-31T08:08:25.300Z,16.10
2022-08-31T08:11:23.146Z,16.10
2022-08-31T08:14:08.837Z,16.10
2022-08-31T08:17:01.082Z,16.20
2022-08-31T08:19:52.447Z,16.30
2022-08-31T08:22:41.621Z,16.40
2022-08-31T08:25:43.121Z,16.40
2022-08-31T08:28:40.258Z,16.50
2022-08-31T08:31:16.749Z,16.50
2022-08-31T08:33:46.960Z,16.50
2022-08-31T08:36:18.530Z,16.60
2022-08-31T08:38:51.334Z,16.70
2022-08-31T08:41:24.899Z,16.70
2022-08-31T08:44:04.248Z,16.80
2022-08-31T08:46:44.214Z,16.80
2022-08-31T08:49:22.483Z,16.80
2022-08-31T08:52:02.205Z,16.90
2022-08-31T08:54:35.881Z,16.80
2022-08-31T08:57:14.168Z,17.00
2022-08-31T08:59:48.444Z,17.10
2022-08-31T09:02:24.385Z,17.10
2022-08-31T09:05:40.032Z,17.10
2022-08-31T09:09:08.874Z,17.20
2022-08-31T09:12:01.474Z,17.30
2022-08-31T09:14:53.716Z,17.30
2022-08-31T09:17:45.765Z,17.30
2022-08-31T09:20:16.684Z,17.40
2022-08-31T09:22:50.214Z,17.50
2022-08-31T09:25:29.900Z,17.50
2022-08-31T09:28:08.226Z,17.60
2022-08-31T09:30:53.241Z,17.60
2022-08-31T09:33:25.735Z,17.60
2022-08-31T09:36:14.067Z,17.70
2022-08-31T09:38:47.296Z,17.70
2022-08-31T09:41:33.253Z,17.70
2022-08-31T09:44:31.510Z,17.70
2022-08-31T09:47:08.390Z,17.70
2022-08-31T09:49:45.723Z,17.90
2022-08-31T09:52:45.097Z,18.00
2022-08-31T09:55:21.465Z,18.00
2022-08-31T09:57:59.303Z,18.10
2022-08-31T10:00:39.928Z,18.10
2022-08-31T10:03:20.680Z,18.10
2022-08-31T10:05:54.753Z,18.10
2022-08-31T10:08:43.483Z,18.20
2022-08-31T10:11:19.817Z,18.10
2022-08-31T10:13:57.841Z,18.20
2022-08-31T10:16:35.010Z,18.10
2022-08-31T10:19:09.707Z,18.20
2022-08-31T10:21:52.422Z,18.20
2022-08-31T10:24:33.942Z,18.20
2022-08-31T10:27:16.941Z,18.20
2022-08-31T10:29:57.092Z,18.20
2022-08-31T10:32:36.456Z,18.20
2022-08-31T10:35:15.066Z,18.30
2022-08-31T10:37:59.871Z,18.40
2022-08-31T10:40:37.066Z,18.50
2022-08-31T10:43:17.040Z,18.70
2022-08-31T10:45:51.151Z,18.60
2022-08-31T10:48:23.423Z,18.70
2022-08-31T10:51:13.285Z,18.80
2022-08-31T10:54:13.522Z,18.90
2022-08-31T10:56:59.291Z,18.90
2022-08-31T10:59:39.428Z,19.00
2022-08-31T11:02:39.821Z,19.10
2022-08-31T11:05:35.370Z,19.20
2022-08-31T11:08:33.434Z,19.40
2022-08-31T11:11:06.080Z,19.30
2022-08-31T11:14:08.141Z,19.30
2022-08-31T11:17:02.080Z,19.30
2022-08-31T11:20:03.546Z,19.30
2022-08-31T11:23:06.291Z,19.30
2022-08-31T11:26:34.595Z,19.30
2022-08-31T11:29:13.719Z,19.30
2022-08-31T11:31:43.763Z,19.30
2022-08-31T11:34:25.768Z,19.30
2022-08-31T11:36:57.549Z,19.30
2022-08-31T11:39:43.163Z,19.30
2022-08-31T11:43:01.356Z,19.20
2022-08-31T11:45:34.670Z,19.20
2022-08-31T11:48:03.522Z,19.30
2022-08-31T11:51:07.455Z,19.30
2022-08-31T11:53:44.390Z,19.30
2022-08-31T11:56:15.323Z,19.30
2022-08-31T11:58:48.281Z,19.20
2022-08-31T12:01:43.172Z,19.30
2022-08-31T12:05:02.734Z,19.30
2022-08-31T12:07:41.229Z,19.40
2022-08-31T12:10:36.513Z,19.50
2022-08-31T12:13:49.799Z,19.50
2022-08-31T12:16:42.925Z,19.60
2022-08-31T12:19:56.748Z,19.70
2022-08-31T12:23:35.139Z,19.70
2022-08-31T12:26:26.706Z,19.70
2022-08-31T12:29:24.180Z,19.80
2022-08-31T12:32:23.528Z,19.90
2022-08-31T12:35:03.424Z,19.90
2022-08-31T12:37:35.991Z,20.00
2022-08-31T12:40:30.687Z,20.00
2022-08-31T12:43:11.654Z,20.00
2022-08-31T12:46:15.116Z,20.00
2022-08-31T12:49:10.960Z,20.00
2022-08-31T12:51:47.206Z,20.10
2022-08-31T12:54:47.283Z,20.10
2022-08-31T12:57:36.311Z,20.20
2022-08-31T13:00:16.065Z,20.20
2022-08-31T13:02:49.445Z,20.30
2022-08-31T13:05:27.508Z,20.30
2022-08-31T13:07:57.335Z,20.30
2022-08-31T13:10:34.089Z,20.40
2022-08-31T13:13:06.849Z,20.40
2022-08-31T13:15:41.670Z,20.50
2022-08-31T13:18:14.792Z,20.50
2022-08-31T13:20:46.930Z,20.60
2022-08-31T13:23:29.226Z,20.60
2022-08-31T13:26:03.856Z,20.70
2022-08-31T13:28:35.329Z,20.70
2022-08-31T13:31:09.248Z,20.70
2022-08-31T13:33:41.378Z,20.70
2022-08-31T13:36:32.066Z,20.80
2022-08-31T13:39:05.555Z,20.80
2022-08-31T13:41:40.001Z,20.80
2022-08-31T13:44:13.225Z,20.60
2022-08-31T13:47:01.307Z,20.60
2022-08-31T13:49:35.867Z,20.50
2022-08-31T13:52:15.445Z,20.60
2022-08-31T13:54:44.716Z,20.70
2022-08-31T13:57:25.955Z,20.70
2022-08-31T13:59:55.169Z,20.70
2022-08-31T14:02:39.282Z,20.80
2022-08-31T14:05:10.609Z,20.90
2022-08-31T14:08:02.392Z,20.80
2022-08-31T14:10:37.335Z,20.80
2022-08-31T14:13:19.263Z,20.80
2022-08-31T14:15:56.754Z,20.80
2022-08-31T14:18:30.471Z,20.70
2022-08-31T14:21:23.065Z,20.70
2022-08-31T14:24:01.616Z,20.60
2022-08-31T14:26:34.094Z,20.70
2022-08-31T14:29:10.377Z,20.60
2022-08-31T14:31:49.521Z,20.70
2022-08-31T14:34:25.034Z,20.80
2022-08-31T14:37:02.369Z,20.80
2022-08-31T14:39:36.810Z,20.70
2022-08-31T14:42:10.017Z,20.70
2022-08-31T14:44:43.110Z,20.70
2022-08-31T14:47:12.863Z,20.70
2022-08-31T14:49:44.256Z,20.70
2022-08-31T14:52:13.216Z,20.70
2022-08-31T14:54:44.544Z,20.70
2022-08-31T14:57:19.191Z,20.60
2022-08-31T14:59:48.420Z,20.60
2022-08-31T15:02:21.362Z,20.50
2022-08-31T15:04:51.437Z,20.50
2022-08-31T15:07:21.710Z,20.50
2022-08-31T15:09:51.885Z,20.50
2022-08-31T15:12:23.758Z,20.50
2022-08-31T15:15:00.236Z,20.40
2022-08-31T15:17:33.943Z,20.40
2022-08-31T15:20:03.768Z,20.40
2022-08-31T15:22:35.202Z,20.40
2022-08-31T15:25:07.136Z,20.40
2022-08-31T15:27:36.405Z,20.40
2022-08-31T15:30:08.932Z,20.40
2022-08-31T15:32:46.788Z,20.40
2022-08-31T15:35:20.029Z,20.40
2022-08-31T15:37:56.807Z,20.30
2022-08-31T15:40:38.676Z,20.30
2022-08-31T15:43:15.632Z,20.30
2022-08-31T15:46:52.561Z,20.20
2022-08-31T15:49:26.034Z,20.20
2022-08-31T15:51:55.279Z,20.20
2022-08-31T15:54:34.349Z,20.10
2022-08-31T15:57:06.130Z,20.10
2022-08-31T15:59:40.118Z,20.10
2022-08-31T16:02:14.956Z,20.10
2022-08-31T16:04:48.666Z,19.80
2022-08-31T16:07:19.257Z,19.80
2022-08-31T16:09:47.987Z,19.90
2022-08-31T16:12:19.578Z,19.90
2022-08-31T16:14:51.550Z,20.00
2022-08-31T16:17:20.578Z,19.90
2022-08-31T16:19:50.271Z,19.90
2022-08-31T16:22:22.597Z,19.80
2022-08-31T16:25:00.288Z,19.90
2022-08-31T16:27:31.097Z,19.80
2022-08-31T16:30:00.533Z,19.80
2022-08-31T16:32:31.000Z,19.70
2022-08-31T16:34:59.956Z,19.80
2022-08-31T16:37:32.064Z,19.80
2022-08-31T16:40:04.321Z,19.80
2022-08-31T16:42:35.230Z,19.80
2022-08-31T16:45:04.186Z,19.80
2022-08-31T16:47:33.020Z,19.90
2022-08-31T16:50:04.554Z,19.90
2022-08-31T16:52:34.862Z,19.90
2022-08-31T16:55:04.057Z,19.90
2022-08-31T16:57:35.777Z,19.90
2022-08-31T17:00:06.723Z,19.80
2022-08-31T17:02:36.066Z,19.80
2022-08-31T17:05:05.594Z,19.80
2022-08-31T17:07:34.785Z,19.70
2022-08-31T17:10:06.735Z,19.80
2022-08-31T17:12:38.510Z,19.70
2022-08-31T17:15:12.257Z,19.60
2022-08-31T17:17:42.592Z,19.60
2022-08-31T17:20:13.342Z,19.70
2022-08-31T17:22:42.318Z,19.70
2022-08-31T17:25:13.256Z,19.60
2022-08-31T17:27:43.763Z,19.50
2022-08-31T17:30:20.290Z,19.50
2022-08-31T17:32:49.475Z,19.50
2022-08-31T17:35:19.197Z,19.40
2022-08-31T17:37:49.104Z,19.30
2022-08-31T17:40:19.118Z,19.30
2022-08-31T17:42:55.009Z,19.40
2022-08-31T17:45:27.758Z,19.30
2022-08-31T17:47:56.581Z,19.20
2022-08-31T17:50:28.173Z,19.10
2022-08-31T17:52:57.087Z,19.10
2022-08-31T17:55:25.830Z,19.10
2022-08-31T17:57:56.594Z,19.00
2022-08-31T18:00:26.381Z,18.90
2022-08-31T18:02:55.236Z,18.80
2022-08-31T18:05:31.840Z,18.80
2022-08-31T18:08:01.945Z,18.80
2022-08-31T18:10:31.125Z,18.80
2022-08-31T18:13:03.391Z,18.70
2022-08-31T18:15:32.586Z,18.60
2022-08-31T18:18:02.388Z,18.70
2022-08-31T18:20:32.738Z,18.80
2022-08-31T18:23:01.581Z,18.70
2022-08-31T18:25:35.945Z,18.60
2022-08-31T18:28:07.271Z,18.50
2022-08-31T18:30:41.349Z,18.40
2022-08-31T18:33:15.036Z,18.40
2022-08-31T18:35:48.831Z,18.50
2022-08-31T18:38:20.228Z,18.40
2022-08-31T18:41:06.212Z,18.40
2022-08-31T18:43:53.845Z,18.30
2022-08-31T18:46:25.358Z,18.30
2022-08-31T18:49:01.163Z,18.40
2022-08-31T18:51:46.435Z,18.40
2022-08-31T18:54:16.125Z,18.30
2022-08-31T18:56:45.125Z,18.30
2022-08-31T18:59:16.210Z,18.30
2022-08-31T19:01:46.769Z,18.20
2022-08-31T19:04:19.881Z,18.10
2022-08-31T19:06:51.057Z,18.10
2022-08-31T19:09:22.414Z,18.20
2022-08-31T19:11:51.837Z,18.10
2022-08-31T19:14:26.117Z,18.10
2022-08-31T19:17:02.314Z,18.00
2022-08-31T19:19:33.911Z,18.00
2022-08-31T19:22:02.690Z,18.00
2022-08-31T19:24:36.323Z,18.00
2022-08-31T19:27:05.506Z,18.00
2022-08-31T19:29:36.176Z,17.90
2022-08-31T19:32:08.745Z,17.80
2022-08-31T19:34:40.452Z,17.70
2022-08-31T19:37:10.260Z,17.60
2022-08-31T19:39:43.161Z,17.60
2022-08-31T19:42:16.825Z,17.60
2022-08-31T19:45:22.678Z,17.50
2022-08-31T19:47:38.787Z,17.50
2022-08-31T19:50:13.692Z,17.60
2022-08-31T19:52:43.718Z,17.50
2022-08-31T19:55:13.414Z,17.50
2022-08-31T19:57:43.562Z,17.50
2022-08-31T20:00:16.210Z,17.50
2022-08-31T20:02:48.068Z,17.30
2022-08-31T20:05:17.431Z,17.30
2022-08-31T20:07:46.493Z,17.30
2022-08-31T20:10:15.410Z,17.20
2022-08-31T20:12:45.027Z,17.00
2022-08-31T20:15:16.072Z,17.00
2022-08-31T20:17:46.327Z,17.00
2022-08-31T20:20:15.234Z,17.00
2022-08-31T20:22:46.623Z,17.20
2022-08-31T20:25:18.002Z,17.20
2022-08-31T20:27:50.515Z,17.00
2022-08-31T20:30:21.135Z,17.00
2022-08-31T20:32:49.869Z,17.00
2022-08-31T20:35:19.116Z,17.10
2022-08-31T20:37:48.131Z,17.10
2022-08-31T20:40:19.088Z,17.10
2022-08-31T20:42:48.381Z,16.80
2022-08-31T20:45:17.297Z,16.60
2022-08-31T20:48:04.906Z,16.60
2022-08-31T20:50:35.812Z,16.60
2022-08-31T20:53:09.068Z,16.60
2022-08-31T20:55:38.422Z,16.60
2022-08-31T20:58:07.850Z,16.60
2022-08-31T21:00:43.597Z,16.60
2022-08-31T21:03:14.573Z,16.50
2022-08-31T21:05:45.355Z,16.60
2022-08-31T21:08:16.026Z,16.60
2022-08-31T21:10:44.783Z,16.50
2022-08-31T21:13:16.851Z,16.50
2022-08-31T21:15:47.824Z,16.50
2022-08-31T21:18:19.196Z,16.40
2022-08-31T21:20:51.641Z,16.20
2022-08-31T21:23:20.679Z,16.20
2022-08-31T21:25:49.663Z,16.30
2022-08-31T21:28:19.755Z,16.20
2022-08-31T21:30:50.563Z,16.10
2022-08-31T21:33:21.058Z,16.10
2022-08-31T21:35:49.883Z,16.00
2022-08-31T21:38:18.611Z,15.90
2022-08-31T21:40:51.496Z,15.90
2022-08-31T21:43:20.824Z,15.90
2022-08-31T21:45:55.370Z,15.90
2022-08-31T21:48:25.698Z,16.00
2022-08-31T21:50:55.771Z,16.10
2022-08-31T21:53:27.202Z,16.00
2022-08-31T21:55:56.004Z,15.90
2022-08-31T21:58:24.836Z,15.80
2022-08-31T22:00:55.541Z,15.80
2022-08-31T22:03:26.164Z,15.70
2022-08-31T22:05:55.250Z,15.70
2022-08-31T22:08:27.194Z,15.60
2022-08-31T22:10:55.899Z,15.60
2022-08-31T22:13:24.645Z,15.50
2022-08-31T22:15:57.144Z,15.50
2022-08-31T22:19:00.216Z,15.40
2022-08-31T22:21:24.176Z,15.40
2022-08-31T22:23:56.892Z,15.50
2022-08-31T22:26:30.245Z,15.60
2022-08-31T22:28:59.393Z,15.60
2022-08-31T22:31:28.581Z,15.40
2022-08-31T22:33:58.969Z,15.30
2022-08-31T22:36:32.783Z,15.40
2022-08-31T22:39:04.407Z,15.30
2022-08-31T22:41:35.739Z,15.30
2022-08-31T22:44:05.099Z,15.10
2022-08-31T22:46:35.254Z,15.20
2022-08-31T22:49:06.327Z,15.20
2022-08-31T22:51:35.881Z,15.20
2022-08-31T22:54:06.190Z,15.20
2022-08-31T22:56:38.175Z,15.20
2022-08-31T22:59:13.998Z,15.20
2022-08-31T23:01:47.695Z,15.10
2022-08-31T23:04:20.450Z,15.00
2022-08-31T23:06:51.890Z,15.00
2022-08-31T23:09:27.699Z,14.90
2022-08-31T23:11:58.779Z,14.90
2022-08-31T23:14:28.049Z,14.80
2022-08-31T23:17:00.934Z,14.90
2022-08-31T23:19:37.094Z,15.00
2022-08-31T23:22:10.714Z,15.00
2022-08-31T23:24:43.950Z,14.80
2022-08-31T23:27:14.955Z,14.80
2022-08-31T23:29:48.913Z,14.90
2022-08-31T23:32:21.083Z,14.90
2022-08-31T23:34:52.767Z,14.70
2022-08-31T23:37:25.580Z,14.80
2022-08-31T23:39:56.761Z,14.70
2022-08-31T23:42:29.542Z,14.70
2022-08-31T23:44:59.085Z,14.80
2022-08-31T23:47:31.983Z,14.70
2022-08-31T23:50:07.679Z,14.70
2022-08-31T23:52:41.768Z,14.90
2022-08-31T23:55:12.272Z,14.70
2022-08-31T23:57:41.978Z,14.60
